createdAt,value
2023-03-24T00:01:52.362Z,72.79
2023-03-24T00:04:19.719Z,72.53
2023-03-24T00:06:49.114Z,72.03
2023-03-24T00:09:16.854Z,72.13
2023-03-24T00:11:45.635Z,72.05
2023-03-24T00:14:12.972Z,71.81
2023-03-24T00:16:42.486Z,72.32
2023-03-24T00:19:10.537Z,72.26
2023-03-24T00:21:38.293Z,72.14
2023-03-24T00:24:07.434Z,72.27
2023-03-24T00:26:35.078Z,72.17
2023-03-24T00:29:04.666Z,72.33
2023-03-24T00:31:32.771Z,72.54
2023-03-24T00:34:02.150Z,72.59
2023-03-24T00:36:29.674Z,73.26
2023-03-24T00:38:57.819Z,72.86
2023-03-24T00:41:27.133Z,72.96
2023-03-24T00:43:56.182Z,72.67
2023-03-24T00:46:32.167Z,72.45
2023-03-24T00:49:03.028Z,72.77
2023-03-24T00:51:31.709Z,72.72
2023-03-24T00:53:59.289Z,72.87
2023-03-24T00:56:27.621Z,72.76
2023-03-24T00:58:57.692Z,73.17
2023-03-24T01:01:29.415Z,73.20
2023-03-24T01:03:57.154Z,74.13
2023-03-24T01:06:24.862Z,74.18
2023-03-24T01:08:53.953Z,74.49
2023-03-24T01:11:22.302Z,74.28
2023-03-24T01:13:49.960Z,75.20
2023-03-24T01:16:17.416Z,76.08
2023-03-24T01:18:46.549Z,75.71
2023-03-24T01:21:14.343Z,75.29
2023-03-24T01:23:42.794Z,75.73
2023-03-24T01:26:11.039Z,75.64
2023-03-24T01:28:40.908Z,75.13
2023-03-24T01:31:09.883Z,75.11
2023-03-24T01:33:37.693Z,75.19
2023-03-24T01:36:07.375Z,75.30
2023-03-24T01:38:35.344Z,74.99
2023-03-24T01:41:02.829Z,74.58
2023-03-24T01:43:31.849Z,74.64
2023-03-24T01:46:01.572Z,74.49
2023-03-24T01:48:30.663Z,74.75
2023-03-24T01:50:59.368Z,74.42
2023-03-24T01:53:28.303Z,73.98
2023-03-24T01:55:55.752Z,74.18
2023-03-24T01:58:26.147Z,73.90
2023-03-24T02:00:53.540Z,74.16
2023-03-24T02:03:22.755Z,74.13
2023-03-24T02:05:51.686Z,74.32
2023-03-24T02:08:21.341Z,74.61
2023-03-24T02:10:50.865Z,75.21
2023-03-24T02:13:18.127Z,75.37
2023-03-24T02:15:51.368Z,75.39
2023-03-24T02:18:25.610Z,76.56
2023-03-24T02:21:05.182Z,76.40
2023-03-24T02:23:58.908Z,77.93
2023-03-24T02:26:42.136Z,77.49
2023-03-24T02:29:32.345Z,77.66
2023-03-24T02:32:10.113Z,78.27
2023-03-24T02:34:51.983Z,77.92
2023-03-24T02:37:29.758Z,79.32
2023-03-24T02:40:06.925Z,80.15
2023-03-24T02:42:43.170Z,80.09
2023-03-24T02:45:17.181Z,79.32
2023-03-24T02:47:47.082Z,80.17
2023-03-24T02:50:19.376Z,79.42
2023-03-24T02:52:47.622Z,79.40
2023-03-24T02:55:21.131Z,79.91
2023-03-24T02:57:51.512Z,79.99
2023-03-24T03:00:23.553Z,80.42
2023-03-24T03:02:53.935Z,81.28
2023-03-24T03:05:24.324Z,81.06
2023-03-24T03:07:53.040Z,80.57
2023-03-24T03:10:24.306Z,80.40
2023-03-24T03:12:54.002Z,80.61
2023-03-24T03:15:23.959Z,79.63
2023-03-24T03:17:54.042Z,79.52
2023-03-24T03:20:23.195Z,79.43
2023-03-24T03:22:52.024Z,79.34
2023-03-24T03:25:22.701Z,79.33
2023-03-24T03:27:52.931Z,79.08
2023-03-24T03:30:23.978Z,79.19
2023-03-24T03:32:55.953Z,79.15
2023-03-24T03:35:25.308Z,80.13
2023-03-24T03:37:54.726Z,80.93
2023-03-24T03:40:23.815Z,81.62
2023-03-24T03:42:52.853Z,81.24
2023-03-24T03:45:20.339Z,82.27
2023-03-24T03:47:47.795Z,82.25
2023-03-24T03:50:15.489Z,82.16
2023-03-24T03:52:44.619Z,83.04
2023-03-24T03:55:12.452Z,82.41
2023-03-24T03:57:39.852Z,83.38
2023-03-24T04:00:11.970Z,84.71
2023-03-24T04:02:44.732Z,84.49
2023-03-24T04:05:20.182Z,83.89
2023-03-24T04:07:57.997Z,84.37
2023-03-24T04:10:30.792Z,84.32
2023-03-24T04:13:04.980Z,84.15
2023-03-24T04:15:37.865Z,84.31
2023-03-24T04:18:16.891Z,84.37
2023-03-24T04:20:47.565Z,84.50
2023-03-24T04:23:18.359Z,85.42
2023-03-24T04:25:50.744Z,85.67
2023-03-24T04:28:26.214Z,85.93
2023-03-24T04:31:01.235Z,86.21
2023-03-24T04:33:31.389Z,86.99
2023-03-24T04:36:06.287Z,87.97
2023-03-24T04:38:35.857Z,87.81
2023-03-24T04:41:05.413Z,88.25
2023-03-24T04:43:36.707Z,89.06
2023-03-24T04:46:06.561Z,89.03
2023-03-24T04:48:33.952Z,88.65
2023-03-24T04:51:03.191Z,87.39
2023-03-24T04:53:30.853Z,86.09
2023-03-24T04:56:02.196Z,85.28
2023-03-24T04:58:29.528Z,85.43
2023-03-24T05:00:58.699Z,84.69
2023-03-24T05:03:27.444Z,84.64
2023-03-24T05:05:54.712Z,84.08
2023-03-24T05:08:22.394Z,83.91
2023-03-24T05:10:49.763Z,83.89
2023-03-24T05:13:17.430Z,83.64
2023-03-24T05:15:45.071Z,82.88
2023-03-24T05:18:12.525Z,82.81
2023-03-24T05:20:41.212Z,82.21
2023-03-24T05:23:08.464Z,81.97
2023-03-24T05:25:35.738Z,81.91
2023-03-24T05:28:03.089Z,81.75
2023-03-24T05:30:30.388Z,81.41
2023-03-24T05:32:57.762Z,81.16
2023-03-24T05:35:25.574Z,80.83
2023-03-24T05:37:54.204Z,80.54
2023-03-24T05:40:21.510Z,80.14
2023-03-24T05:42:49.275Z,79.81
2023-03-24T05:45:16.720Z,80.19
2023-03-24T05:47:44.061Z,80.09
2023-03-24T05:50:11.797Z,80.12
2023-03-24T05:52:39.405Z,79.66
2023-03-24T05:55:09.365Z,79.01
2023-03-24T05:57:36.754Z,78.68
2023-03-24T06:00:06.840Z,78.17
2023-03-24T06:02:34.485Z,77.52
2023-03-24T06:05:01.947Z,77.40
2023-03-24T06:07:30.655Z,77.48
2023-03-24T06:09:58.269Z,77.71
2023-03-24T06:12:27.074Z,78.40
2023-03-24T06:14:54.338Z,78.63
2023-03-24T06:17:22.140Z,78.78
2023-03-24T06:19:49.863Z,78.91
2023-03-24T06:22:17.592Z,78.63
2023-03-24T06:24:44.906Z,78.76
2023-03-24T06:27:14.029Z,78.23
2023-03-24T06:29:43.225Z,78.61
2023-03-24T06:32:10.793Z,79.96
2023-03-24T06:34:38.663Z,80.20
2023-03-24T06:37:05.962Z,80.29
2023-03-24T06:39:33.249Z,81.54
2023-03-24T06:42:00.551Z,80.93
2023-03-24T06:44:27.900Z,80.65
2023-03-24T06:46:56.507Z,80.38
2023-03-24T06:49:23.854Z,79.25
2023-03-24T06:51:51.476Z,79.76
2023-03-24T06:54:18.970Z,78.90
2023-03-24T06:56:46.359Z,79.14
2023-03-24T06:59:13.758Z,77.63
2023-03-24T07:01:41.064Z,77.05
2023-03-24T07:04:09.701Z,76.78
2023-03-24T07:06:50.583Z,76.70
2023-03-24T07:09:24.695Z,76.76
2023-03-24T07:11:51.967Z,76.35
2023-03-24T07:14:19.219Z,76.20
2023-03-24T07:16:46.684Z,76.31
2023-03-24T07:19:15.358Z,76.13
2023-03-24T07:21:42.621Z,76.43
2023-03-24T07:24:09.973Z,76.69
2023-03-24T07:26:37.396Z,76.31
2023-03-24T07:29:04.690Z,75.70
2023-03-24T07:31:37.632Z,75.61
2023-03-24T07:34:05.035Z,75.37
2023-03-24T07:36:33.600Z,75.26
2023-03-24T07:39:00.885Z,74.63
2023-03-24T07:41:29.292Z,73.97
2023-03-24T07:43:56.707Z,74.77
2023-03-24T07:46:24.068Z,74.49
2023-03-24T07:48:51.383Z,74.33
2023-03-24T07:51:19.899Z,74.32
2023-03-24T07:53:48.542Z,74.21
2023-03-24T07:56:16.079Z,73.00
2023-03-24T07:58:43.546Z,72.77
2023-03-24T08:01:11.295Z,73.21
2023-03-24T08:03:38.822Z,72.17
2023-03-24T08:06:06.996Z,71.14
2023-03-24T08:08:34.458Z,69.73
2023-03-24T08:11:03.080Z,67.12
2023-03-24T08:13:30.531Z,66.57
2023-03-24T08:15:57.836Z,64.70
2023-03-24T08:18:25.500Z,65.17
2023-03-24T08:20:56.632Z,64.14
2023-03-24T08:23:24.027Z,64.22
2023-03-24T08:25:51.632Z,63.98
2023-03-24T08:28:20.580Z,61.89
2023-03-24T08:30:48.358Z,62.08
2023-03-24T08:33:16.732Z,62.34
2023-03-24T08:35:45.982Z,62.56
2023-03-24T08:38:15.579Z,61.72
2023-03-24T08:40:44.134Z,61.83
2023-03-24T08:43:14.125Z,62.53
2023-03-24T08:45:42.694Z,62.32
2023-03-24T08:48:10.705Z,61.95
2023-03-24T08:50:39.275Z,62.66
2023-03-24T08:53:07.057Z,62.49
2023-03-24T08:55:34.878Z,61.98
2023-03-24T08:58:02.764Z,61.46
2023-03-24T09:00:30.370Z,61.29
2023-03-24T09:03:01.059Z,61.02
2023-03-24T09:05:41.412Z,61.98
2023-03-24T09:08:12.341Z,61.91
2023-03-24T09:10:39.648Z,63.47
2023-03-24T09:13:07.022Z,62.60
2023-03-24T09:15:34.515Z,62.33
2023-03-24T09:18:03.628Z,61.85
2023-03-24T09:20:30.977Z,64.30
2023-03-24T09:22:58.329Z,62.73
2023-03-24T09:25:25.938Z,61.54
2023-03-24T09:27:53.208Z,62.56
2023-03-24T09:30:20.615Z,61.80
2023-03-24T09:32:48.298Z,61.32
2023-03-24T09:35:17.908Z,61.05
2023-03-24T09:37:45.572Z,61.47
2023-03-24T09:40:19.086Z,61.27
2023-03-24T09:42:50.867Z,59.22
2023-03-24T09:45:19.648Z,60.21
2023-03-24T09:47:50.055Z,60.87
2023-03-24T09:50:22.928Z,59.55
2023-03-24T09:52:52.938Z,60.03
2023-03-24T09:55:22.175Z,58.70
2023-03-24T09:57:50.601Z,58.65
2023-03-24T10:00:19.985Z,59.26
2023-03-24T10:02:49.086Z,57.27
2023-03-24T10:05:18.776Z,57.89
2023-03-24T10:07:52.313Z,57.78
2023-03-24T10:10:23.690Z,56.78
2023-03-24T10:12:50.989Z,57.27
2023-03-24T10:15:30.931Z,57.04
2023-03-24T10:18:13.682Z,57.53
2023-03-24T10:20:44.498Z,59.13
2023-03-24T10:23:21.537Z,57.53
2023-03-24T10:25:52.412Z,56.61
2023-03-24T10:28:21.170Z,55.80
2023-03-24T10:30:49.528Z,57.04
2023-03-24T10:33:17.612Z,56.27
2023-03-24T10:35:47.847Z,55.54
2023-03-24T10:38:18.849Z,54.59
2023-03-24T10:40:46.821Z,54.58
2023-03-24T10:43:14.393Z,54.83
2023-03-24T10:45:44.674Z,54.34
2023-03-24T10:48:14.105Z,55.07
2023-03-24T10:50:42.713Z,55.36
2023-03-24T10:53:10.710Z,54.21
2023-03-24T10:55:40.092Z,54.53
2023-03-24T10:58:16.431Z,52.53
2023-03-24T11:00:45.266Z,52.12
2023-03-24T11:03:15.424Z,51.96
2023-03-24T11:05:44.123Z,52.68
2023-03-24T11:08:14.608Z,53.20
2023-03-24T11:10:43.212Z,53.35
2023-03-24T11:13:19.069Z,53.70
2023-03-24T11:15:57.046Z,53.37
2023-03-24T11:18:24.306Z,54.16
2023-03-24T11:20:54.193Z,53.30
2023-03-24T11:23:22.082Z,53.90
2023-03-24T11:25:53.863Z,54.20
2023-03-24T11:28:22.382Z,54.89
2023-03-24T11:30:51.054Z,54.59
2023-03-24T11:33:20.615Z,54.81
2023-03-24T11:36:05.914Z,54.12
2023-03-24T11:38:35.931Z,54.57
2023-03-24T11:41:05.811Z,54.67
2023-03-24T11:43:33.349Z,53.59
2023-03-24T11:46:02.211Z,53.54
2023-03-24T11:48:33.029Z,53.18
2023-03-24T11:51:00.855Z,53.64
2023-03-24T11:53:29.284Z,53.15
2023-03-24T11:56:00.779Z,53.56
2023-03-24T11:58:32.627Z,54.19
2023-03-24T12:01:04.089Z,54.65
2023-03-24T12:03:50.047Z,54.51
2023-03-24T12:06:26.643Z,53.73
2023-03-24T12:09:00.236Z,54.42
2023-03-24T12:11:32.161Z,53.65
2023-03-24T12:14:02.648Z,52.78
2023-03-24T12:16:40.174Z,52.30
2023-03-24T12:19:31.807Z,50.88
2023-03-24T12:22:05.711Z,52.54
2023-03-24T12:24:43.868Z,52.02
2023-03-24T12:27:19.933Z,51.78
2023-03-24T12:29:57.348Z,51.74
2023-03-24T12:32:35.167Z,51.71
2023-03-24T12:35:11.359Z,52.50
2023-03-24T12:37:45.620Z,52.80
2023-03-24T12:40:32.634Z,53.84
2023-03-24T12:43:03.753Z,54.08
2023-03-24T12:45:38.539Z,54.21
2023-03-24T12:48:21.261Z,54.40
2023-03-24T12:50:54.684Z,55.62
2023-03-24T12:53:31.975Z,55.61
2023-03-24T12:56:02.305Z,56.41
2023-03-24T12:58:37.450Z,56.73
2023-03-24T13:01:08.356Z,56.65
2023-03-24T13:03:39.264Z,56.23
2023-03-24T13:06:17.269Z,56.82
2023-03-24T13:08:49.309Z,56.84
2023-03-24T13:11:32.342Z,56.42
2023-03-24T13:14:02.120Z,57.46
2023-03-24T13:16:32.521Z,57.24
2023-03-24T13:19:02.135Z,58.18
2023-03-24T13:21:31.771Z,58.66
2023-03-24T13:24:03.118Z,59.45
2023-03-24T13:26:38.378Z,59.27
2023-03-24T13:29:14.137Z,59.46
2023-03-24T13:31:45.449Z,59.32
2023-03-24T13:34:20.073Z,58.38
2023-03-24T13:36:50.046Z,58.52
2023-03-24T13:39:20.129Z,58.87
2023-03-24T13:41:49.553Z,58.82
2023-03-24T13:44:19.082Z,58.60
2023-03-24T13:47:00.264Z,57.94
2023-03-24T13:49:27.560Z,57.74
2023-03-24T13:51:54.875Z,58.08
2023-03-24T13:54:23.644Z,58.64
2023-03-24T13:56:54.267Z,59.25
2023-03-24T13:59:26.229Z,59.23
2023-03-24T14:02:12.026Z,60.21
2023-03-24T14:04:47.305Z,62.51
2023-03-24T14:07:30.600Z,72.70
2023-03-24T14:09:59.373Z,84.05
2023-03-24T14:12:27.022Z,92.49
2023-03-24T14:15:09.087Z,93.19
2023-03-24T14:17:36.392Z,94.52
2023-03-24T14:20:25.539Z,94.60
2023-03-24T14:22:53.533Z,93.47
2023-03-24T14:25:23.666Z,92.86
2023-03-24T14:27:52.271Z,93.51
2023-03-24T14:30:21.864Z,93.15
2023-03-24T14:32:50.661Z,94.29
2023-03-24T14:35:27.211Z,94.74
2023-03-24T14:37:56.367Z,95.52
2023-03-24T14:40:29.470Z,94.72
2023-03-24T14:43:03.014Z,94.73
2023-03-24T14:46:03.412Z,93.99
2023-03-24T14:48:36.081Z,92.51
2023-03-24T14:51:09.627Z,89.74
2023-03-24T14:53:39.190Z,91.91
2023-03-24T14:56:07.986Z,89.89
2023-03-24T14:58:38.932Z,91.44
2023-03-24T15:01:08.027Z,91.46
2023-03-24T15:03:40.022Z,90.96
2023-03-24T15:06:16.002Z,91.45
2023-03-24T15:08:49.583Z,89.40
2023-03-24T15:11:18.698Z,87.69
2023-03-24T15:13:48.836Z,88.63
2023-03-24T15:16:21.249Z,87.94
2023-03-24T15:18:58.160Z,85.85
2023-03-24T15:21:33.218Z,85.01
2023-03-24T15:24:01.697Z,86.71
2023-03-24T15:26:29.976Z,87.34
2023-03-24T15:28:58.373Z,87.03
2023-03-24T15:31:30.361Z,85.77
2023-03-24T15:34:05.191Z,84.63
2023-03-24T15:36:39.334Z,84.03
2023-03-24T15:39:18.106Z,85.65
2023-03-24T15:41:46.032Z,84.27
2023-03-24T15:44:18.341Z,82.19
2023-03-24T15:46:46.008Z,82.35
2023-03-24T15:49:20.124Z,80.23
2023-03-24T15:51:49.975Z,80.17
2023-03-24T15:54:22.184Z,79.81
2023-03-24T15:57:01.038Z,78.13
2023-03-24T15:59:34.003Z,77.60
2023-03-24T16:02:01.313Z,76.38
2023-03-24T16:04:29.766Z,76.39
2023-03-24T16:06:58.703Z,75.46
2023-03-24T16:09:28.020Z,76.39
2023-03-24T16:11:55.552Z,77.28
2023-03-24T16:14:24.178Z,77.77
2023-03-24T16:16:54.213Z,77.87
2023-03-24T16:19:21.522Z,79.15
2023-03-24T16:21:48.779Z,78.10
2023-03-24T16:24:17.442Z,79.37
2023-03-24T16:26:44.717Z,79.67
2023-03-24T16:29:16.574Z,80.67
2023-03-24T16:31:44.286Z,80.23
2023-03-24T16:34:11.556Z,80.05
2023-03-24T16:36:38.832Z,78.14
2023-03-24T16:39:10.919Z,76.95
2023-03-24T16:41:39.514Z,75.84
2023-03-24T16:44:06.775Z,77.42
2023-03-24T16:46:35.352Z,77.65
2023-03-24T16:49:03.496Z,78.77
2023-03-24T16:51:30.883Z,79.05
2023-03-24T16:53:58.465Z,81.54
2023-03-24T16:56:26.405Z,79.08
2023-03-24T16:58:56.307Z,77.55
2023-03-24T17:01:29.265Z,78.85
2023-03-24T17:03:57.411Z,79.38
2023-03-24T17:06:26.027Z,78.90
2023-03-24T17:08:53.303Z,78.40
2023-03-24T17:11:21.322Z,78.19
2023-03-24T17:13:48.593Z,78.06
2023-03-24T17:16:17.610Z,80.42
2023-03-24T17:18:44.919Z,79.05
2023-03-24T17:21:12.912Z,76.85
2023-03-24T17:23:42.116Z,77.72
2023-03-24T17:26:09.390Z,78.56
2023-03-24T17:28:36.949Z,79.29
2023-03-24T17:31:04.362Z,78.68
2023-03-24T17:33:33.438Z,78.05
2023-03-24T17:36:00.957Z,77.91
2023-03-24T17:38:28.374Z,78.98
2023-03-24T17:40:59.420Z,78.80
2023-03-24T17:43:27.209Z,78.40
2023-03-24T17:45:56.837Z,78.64
2023-03-24T17:48:24.125Z,77.83
2023-03-24T17:50:53.190Z,78.83
2023-03-24T17:53:25.554Z,77.90
2023-03-24T17:55:53.639Z,77.86
2023-03-24T17:58:21.634Z,78.28
2023-03-24T18:00:49.150Z,77.95
2023-03-24T18:03:16.795Z,78.49
2023-03-24T18:05:44.952Z,77.60
2023-03-24T18:08:13.613Z,77.04
2023-03-24T18:10:41.098Z,76.36
2023-03-24T18:13:08.729Z,77.35
2023-03-24T18:15:36.285Z,75.68
2023-03-24T18:18:03.748Z,76.48
2023-03-24T18:20:31.988Z,75.90
2023-03-24T18:22:59.266Z,77.19
2023-03-24T18:25:27.868Z,76.75
2023-03-24T18:27:56.172Z,76.31
2023-03-24T18:30:23.506Z,75.12
2023-03-24T18:32:50.805Z,75.40
2023-03-24T18:35:18.168Z,75.13
2023-03-24T18:37:45.573Z,75.23
2023-03-24T18:40:14.432Z,75.00
2023-03-24T18:42:43.113Z,74.50
2023-03-24T18:45:17.121Z,74.38
2023-03-24T18:47:44.755Z,74.47
2023-03-24T18:50:12.336Z,74.92
2023-03-24T18:52:39.872Z,74.93
2023-03-24T18:55:07.910Z,75.49
2023-03-24T18:57:35.401Z,74.46
2023-03-24T19:00:06.917Z,74.92
2023-03-24T19:02:34.464Z,75.43
2023-03-24T19:05:02.343Z,74.91
2023-03-24T19:07:29.631Z,73.87
2023-03-24T19:09:56.953Z,73.67
2023-03-24T19:12:24.219Z,73.53
2023-03-24T19:14:54.075Z,72.72
2023-03-24T19:17:23.553Z,72.95
2023-03-24T19:19:50.833Z,74.33
2023-03-24T19:22:21.918Z,73.74
2023-03-24T19:24:49.202Z,73.44
2023-03-24T19:27:16.739Z,73.30
2023-03-24T19:29:44.052Z,73.48
2023-03-24T19:32:11.304Z,72.45
2023-03-24T19:34:39.934Z,72.60
2023-03-24T19:37:10.161Z,73.34
2023-03-24T19:39:39.426Z,73.08
2023-03-24T19:42:07.762Z,72.85
2023-03-24T19:44:39.078Z,72.66
2023-03-24T19:47:06.453Z,72.06
2023-03-24T19:49:33.723Z,70.60
2023-03-24T19:52:02.297Z,70.99
2023-03-24T19:54:29.588Z,71.75
2023-03-24T19:56:57.027Z,70.90
2023-03-24T19:59:24.353Z,72.00
2023-03-24T20:01:55.128Z,71.34
2023-03-24T20:04:23.151Z,71.01
2023-03-24T20:06:50.521Z,72.69
2023-03-24T20:09:19.103Z,73.09
2023-03-24T20:11:47.491Z,73.26
2023-03-24T20:14:16.848Z,73.42
2023-03-24T20:16:44.286Z,72.78
2023-03-24T20:19:11.667Z,73.95
2023-03-24T20:21:38.908Z,73.60
2023-03-24T20:24:06.783Z,73.77
2023-03-24T20:26:35.434Z,73.31
2023-03-24T20:29:03.139Z,73.27
2023-03-24T20:31:30.533Z,72.94
2023-03-24T20:33:57.970Z,72.85
2023-03-24T20:36:25.297Z,72.95
2023-03-24T20:38:52.652Z,72.94
2023-03-24T20:41:21.876Z,72.79
2023-03-24T20:43:50.650Z,72.56
2023-03-24T20:46:18.499Z,72.86
2023-03-24T20:48:46.216Z,73.13
2023-03-24T20:51:13.938Z,73.35
2023-03-24T20:53:41.528Z,72.87
2023-03-24T20:56:09.596Z,73.58
2023-03-24T20:58:37.675Z,73.20
2023-03-24T21:01:08.006Z,72.87
2023-03-24T21:03:35.805Z,73.26
2023-03-24T21:06:03.477Z,72.64
2023-03-24T21:08:31.085Z,73.47
2023-03-24T21:10:58.641Z,72.04
2023-03-24T21:13:37.048Z,72.31
2023-03-24T21:16:08.042Z,73.13
2023-03-24T21:18:37.674Z,72.38
2023-03-24T21:21:05.676Z,72.59
2023-03-24T21:23:34.206Z,71.97
2023-03-24T21:26:02.080Z,72.11
2023-03-24T21:28:30.718Z,71.59
2023-03-24T21:30:58.211Z,72.13
2023-03-24T21:33:25.587Z,72.51
2023-03-24T21:35:55.493Z,72.23
2023-03-24T21:38:23.272Z,72.34
2023-03-24T21:40:57.780Z,72.69
2023-03-24T21:43:26.971Z,72.93
2023-03-24T21:45:58.100Z,73.51
2023-03-24T21:48:26.252Z,72.49
2023-03-24T21:50:55.706Z,72.68
2023-03-24T21:53:26.078Z,72.23
2023-03-24T21:55:54.159Z,72.47
2023-03-24T21:58:21.461Z,74.09
2023-03-24T22:00:49.517Z,73.03
2023-03-24T22:03:17.365Z,72.87
2023-03-24T22:05:45.445Z,73.04
2023-03-24T22:08:22.407Z,72.73
2023-03-24T22:10:49.739Z,72.25
2023-03-24T22:13:17.121Z,72.75
2023-03-24T22:15:44.408Z,73.16
2023-03-24T22:18:12.021Z,73.31
2023-03-24T22:20:40.613Z,72.13
2023-03-24T22:23:07.852Z,72.60
2023-03-24T22:25:37.203Z,72.33
2023-03-24T22:28:04.626Z,71.85
2023-03-24T22:30:31.908Z,71.30
2023-03-24T22:32:59.239Z,71.12
2023-03-24T22:35:27.954Z,71.42
2023-03-24T22:37:55.546Z,70.73
2023-03-24T22:40:23.168Z,71.23
2023-03-24T22:42:51.833Z,70.83
2023-03-24T22:45:19.123Z,70.69
2023-03-24T22:47:46.451Z,70.36
2023-03-24T22:50:13.728Z,70.46
2023-03-24T22:52:40.964Z,70.86
2023-03-24T22:55:09.922Z,70.29
2023-03-24T22:57:37.227Z,69.21
2023-03-24T23:00:08.167Z,68.78
2023-03-24T23:02:35.585Z,68.71
2023-03-24T23:05:03.004Z,68.33
2023-03-24T23:07:30.310Z,68.37
2023-03-24T23:09:59.346Z,68.83
2023-03-24T23:12:27.349Z,68.01
2023-03-24T23:14:55.204Z,68.37
2023-03-24T23:17:25.303Z,68.50
2023-03-24T23:19:52.806Z,68.54
2023-03-24T23:22:21.098Z,68.62
2023-03-24T23:24:48.846Z,68.33
2023-03-24T23:27:17.286Z,68.90
2023-03-24T23:29:44.577Z,68.53
2023-03-24T23:32:11.838Z,69.43
2023-03-24T23:34:42.620Z,68.27
2023-03-24T23:37:10.144Z,67.88
2023-03-24T23:39:37.510Z,68.10
2023-03-24T23:42:05.324Z,68.42
2023-03-24T23:44:32.701Z,69.14
2023-03-24T23:47:00.133Z,68.84
2023-03-24T23:49:27.403Z,68.55
2023-03-24T23:51:56.107Z,68.98
2023-03-24T23:54:23.535Z,68.49
2023-03-24T23:56:51.397Z,68.05
2023-03-24T23:59:18.954Z,69.00
